• Join FlightAware (Why Join?)
  • Login
  • US Flag 
02:53PM EDT


 

Airport Tracker/Info


-or-


 

Live Flight TrackerFlight Track Log ✈ AVN10 ✈ 08-Nov-2013 ✈ NVVV / VLI - YSSY / SYD

Flight Track Log - Related Links

Times and Time Zones

All times are in EST time to prevent confusion due to time zone crossing. See the AVN10 flight status page for this flight to view local times or setup timezone preferences in your user account.

Time Position Orientation Groundspeed Altitude Reporting Facility
EST Latitude Longitude Course Direction KTS MPH feet Rate Location/Type
03:09PM -18.1175 168.1066 206° Southwest  Level FlightAware Approximate
03:10PM -18.2220 168.0531 206° Southwest  Level FlightAware Approximate
03:11PM -18.3264 167.9996 206° Southwest  Level FlightAware Approximate
03:12PM -18.4309 167.9460 206° Southwest  Level FlightAware Approximate
03:13PM -18.5190 167.8662 204° Southwest  Level Estimated
03:14PM -18.6254 167.8169 204° Southwest  Level FlightAware Approximate
03:15PM -18.7317 167.7675 204° Southwest  Level FlightAware Approximate
03:16PM -18.8381 167.7180 204° Southwest  Level FlightAware Approximate
03:17PM -18.9444 167.6685 204° Southwest  Level FlightAware Approximate
03:18PM -19.0507 167.6190 204° Southwest  Level FlightAware Approximate
03:19PM -19.1570 167.5694 204° Southwest  Level FlightAware Approximate
03:20PM -19.2633 167.5197 204° Southwest  Level FlightAware Approximate
03:21PM -19.3696 167.4699 204° Southwest  Level FlightAware Approximate
03:22PM -19.4758 167.4201 204° Southwest  Level FlightAware Approximate
03:23PM -19.5821 167.3702 204° Southwest  Level FlightAware Approximate
03:24PM -19.6883 167.3203 204° Southwest  Level FlightAware Approximate
03:25PM -19.7945 167.2702 204° Southwest  Level FlightAware Approximate
03:26PM -19.9007 167.2201 204° Southwest  Level FlightAware Approximate
03:27PM -20.0069 167.1700 204° Southwest  Level FlightAware Approximate
03:28PM -20.1131 167.1198 204° Southwest  Level FlightAware Approximate
03:29PM -20.2193 167.0695 204° Southwest  Level FlightAware Approximate
03:30PM -20.3254 167.0191 204° Southwest  Level FlightAware Approximate
03:31PM -20.4316 166.9687 204° Southwest  Level FlightAware Approximate
03:32PM -20.5377 166.9182 204° Southwest  Level FlightAware Approximate
03:33PM -20.6438 166.8676 204° Southwest  Level FlightAware Approximate
03:34PM -20.7499 166.8170 204° Southwest  Level FlightAware Approximate
03:34PM -20.5870 166.8850 204° Southwest 424 488 34,000  Level FlightAware
03:35PM -20.8560 166.7663 204° Southwest  Level FlightAware Approximate
03:35PM -20.6570 166.8530 203° Southwest 424 488 34,000  Level FlightAware
03:36PM -20.7500 166.8090 204° Southwest 421 484 34,000  Level FlightAware
03:37PM -20.8450 166.7640 204° Southwest 416 479 34,000  Level FlightAware
03:37PM -20.9100 166.7340 203° Southwest 414 476 34,000  Level FlightAware
03:38PM -20.9790 166.7010 204° Southwest 414 476 34,000  Level FlightAware
03:39PM -21.0570 166.6640 204° Southwest 416 479 34,000  Level FlightAware
03:40PM -21.1940 166.5990 204° Southwest 418 481 34,000  Level FlightAware
03:41PM -21.2930 166.5520 204° Southwest 422 486 34,000  Level FlightAware
03:42PM -21.3600 166.5200 204° Southwest 422 486 34,000  Level FlightAware
03:43PM -21.4650 166.4700 204° Southwest 423 487 34,000  Level FlightAware
03:44PM -21.5760 166.4170 204° Southwest 425 489 34,000  Level FlightAware
03:45PM -21.6800 166.3680 204° Southwest 427 491 34,000  Level FlightAware
03:45PM -21.7350 166.3410 205° Southwest 429 494 34,000  Level FlightAware
03:46PM -21.7930 166.3140 203° Southwest 431 496 34,000  Level FlightAware
03:46PM -21.8940 166.2650 204° Southwest 435 501 34,000  Level FlightAware
03:47PM -21.9900 166.2170 205° Southwest 430 495 34,000  Level FlightAware
03:48PM -22.0290 166.1870 215° Southwest 417 480 34,000  Level FlightAware
03:48PM -22.0680 166.1470 224° Southwest 414 476 34,000  Level FlightAware
03:49PM -22.1310 166.0800 225° Southwest 415 478 34,000  Level FlightAware
03:49PM -22.1740 166.0360 223° Southwest 417 480 34,000  Level FlightAware
03:50PM -22.2240 165.9830 224° Southwest 417 480 34,000  Level FlightAware
03:51PM -22.2730 165.9310 224° Southwest 415 478 34,000  Level FlightAware
03:51PM -22.3250 165.8760 224° Southwest 415 478 34,000  Level FlightAware
03:52PM -22.3940 165.8040 224° Southwest 412 474 34,000  Level FlightAware
03:53PM -22.4900 165.7030 224° Southwest 409 471 34,000  Level FlightAware
03:54PM -22.5590 165.6300 224° Southwest 409 471 34,000  Level FlightAware
03:55PM -22.5970 165.5900 224° Southwest 408 470 34,000  Level FlightAware
03:56PM -22.6820 165.5000 224° Southwest 407 468 34,000  Level FlightAware
03:56PM -22.7150 165.4650 224° Southwest 406 467 34,000  Level FlightAware
03:57PM -22.7950 165.3800 224° Southwest 407 468 34,000  Level FlightAware
03:58PM -22.8300 165.3430 224° Southwest 407 468 34,000  Level FlightAware
03:58PM -22.8740 165.2960 225° Southwest 407 468 34,000  Level FlightAware
03:59PM -22.9300 165.2360 225° Southwest 407 468 34,000  Level FlightAware
04:00PM -23.0120 165.1490 224° Southwest 407 468 34,000  Level FlightAware
04:00PM -23.0640 165.0940 224° Southwest 407 468 34,000  Level FlightAware
04:01PM -23.1080 165.0460 225° Southwest 406 467 34,000  Level FlightAware
04:02PM -23.1520 165.0000 224° Southwest 406 467 34,000  Level FlightAware
04:03PM -23.2200 164.9280 224° Southwest 406 467 34,000  Level FlightAware
04:03PM -23.2610 164.8850 224° Southwest 406 467 34,000  Level FlightAware
04:04PM -23.3020 164.8410 225° Southwest 406 467 34,000  Level FlightAware
04:04PM -23.3450 164.7960 224° Southwest 406 467 34,000  Level FlightAware
04:05PM -23.3840 164.7550 224° Southwest 406 467 34,000  Level FlightAware
04:06PM -23.4530 164.6830 224° Southwest 406 467 34,000  Level FlightAware
04:07PM -23.4940 164.6390 225° Southwest 406 467 34,000  Level FlightAware
04:08PM -23.5660 164.5630 224° Southwest 406 467 34,000  Level FlightAware
04:08PM -23.6090 164.5180 224° Southwest 406 467 34,000  Level FlightAware
04:09PM -23.6500 164.4750 224° Southwest 406 467 34,000  Level FlightAware
04:09PM -23.6920 164.4310 224° Southwest 406 467 34,000  Level FlightAware
04:10PM -23.7590 164.3600 224° Southwest 406 467 34,000  Level FlightAware
04:11PM -23.8010 164.3160 224° Southwest 406 467 34,000  Level FlightAware
04:12PM -23.8420 164.2720 224° Southwest 406 467 34,000  Level FlightAware
04:14PM -23.9973 164.1004 225° Southwest  Level FlightAware Approximate
04:15PM -24.0790 164.0099 225° Southwest  Level FlightAware Approximate
04:16PM -24.1606 163.9193 225° Southwest  Level FlightAware Approximate
04:17PM -24.2422 163.8286 225° Southwest  Level FlightAware Approximate
04:18PM -24.3237 163.7378 225° Southwest  Level FlightAware Approximate
04:19PM -24.4051 163.6468 225° Southwest  Level FlightAware Approximate
04:20PM -24.4865 163.5558 226° Southwest  Level FlightAware Approximate
04:20PM -24.8519 163.1410 225° Southwest 34,000  Level Aus ATC (Calculated)
04:21PM -24.5679 163.4646 226° Southwest  Level FlightAware Approximate
04:22PM -24.9616 163.0202 225° Southwest  Level FlightAware Approximate
04:23PM -25.0408 162.9327 225° Southwest  Level FlightAware Approximate
04:23PM -25.1216 162.8391 225° Southwest 34,000  Level Aus ATC (Calculated)
04:24PM -25.1713 162.7833 225° Southwest 34,000  Level Aus ATC (Calculated)
04:25PM -25.0930 162.8720 46° Northeast  Level FlightAware Approximate
04:26PM -25.0147 162.9606 46° Northeast  Level FlightAware Approximate
04:26PM -25.3666 162.5631 226° Southwest 34,000  Level Aus ATC (Calculated)
04:28PM -25.5037 162.4037 225° Southwest  Level Estimated
04:29PM -25.5810 162.3162 226° Southwest  Level FlightAware Approximate
04:30PM -25.6581 162.2285 226° Southwest  Level FlightAware Approximate
04:31PM -25.7353 162.1408 226° Southwest  Level FlightAware Approximate
04:32PM -25.8123 162.0529 226° Southwest  Level FlightAware Approximate
04:33PM -25.8894 161.9649 226° Southwest  Level FlightAware Approximate
04:34PM -25.9663 161.8768 226° Southwest  Level FlightAware Approximate
04:35PM -26.0432 161.7886 226° Southwest  Level FlightAware Approximate
04:36PM -26.1201 161.7002 226° Southwest  Level FlightAware Approximate
04:37PM -26.1969 161.6118 226° Southwest  Level FlightAware Approximate
04:38PM -26.2736 161.5232 226° Southwest  Level FlightAware Approximate
04:39PM -26.3503 161.4345 226° Southwest  Level FlightAware Approximate
04:40PM -26.4270 161.3457 226° Southwest  Level FlightAware Approximate
04:41PM -26.5035 161.2568 226° Southwest  Level FlightAware Approximate
04:42PM -26.5801 161.1678 226° Southwest  Level FlightAware Approximate
04:43PM -26.6565 161.0786 226° Southwest  Level FlightAware Approximate
04:44PM -26.7330 160.9893 226° Southwest  Level FlightAware Approximate
04:45PM -26.8093 160.8999 226° Southwest  Level FlightAware Approximate
04:46PM -26.8856 160.8104 226° Southwest  Level FlightAware Approximate
04:46PM -27.3608 160.2501 227° Southwest 34,000  Level Aus ATC (Calculated)
04:47PM -26.9619 160.7208 226° Southwest  Level FlightAware Approximate
04:48PM -27.4455 160.1491 227° Southwest  Level FlightAware Approximate
04:48PM -27.5849 159.9822 227° Southwest 34,000  Level Aus ATC (Calculated)
04:49PM -27.5212 160.0585 227° Southwest  Level FlightAware Approximate
04:50PM -27.6694 159.8808 227° Southwest  Level FlightAware Approximate
04:50PM -27.7946 159.7300 227° Southwest 34,000  Level Aus ATC (Calculated)
04:51PM -27.7450 159.7898 227° Southwest  Level FlightAware Approximate
04:52PM -27.8789 159.6282 227° Southwest  Level FlightAware Approximate
04:53PM -27.9543 159.5369 227° Southwest  Level FlightAware Approximate
04:54PM -28.0297 159.4454 227° Southwest  Level FlightAware Approximate
04:55PM -28.1050 159.3538 227° Southwest  Level FlightAware Approximate
04:56PM -28.1803 159.2621 227° Southwest  Level FlightAware Approximate
04:56PM -28.3359 159.0718 227° Southwest 34,000  Level Aus ATC (Calculated)
04:57PM -28.2555 159.1703 227° Southwest  Level FlightAware Approximate
04:57PM -28.3767 159.0217 227° Southwest 34,000  Level Aus ATC (Calculated)
04:59PM -28.2336 159.1970 47° Northeast  Level FlightAware Approximate
04:59PM -28.5804 158.7708 227° Southwest 34,000  Level Aus ATC (Calculated)
05:01PM -28.4777 158.8975 47° Northeast  Level FlightAware Approximate
05:02PM -28.3976 158.9960 47° Northeast  Level FlightAware Approximate
05:02PM -28.7836 158.5188 227° Southwest 34,000  Level Aus ATC (Calculated)
05:04PM -28.6292 158.7104 47° Northeast  Level FlightAware Approximate
05:04PM -28.9863 158.2659 227° Southwest 34,000  Level Aus ATC (Calculated)
05:04PM -29.0268 158.2153 227° Southwest 34,000  Level Aus ATC (Calculated)
05:06PM -28.9393 158.3248 48° Northeast  Level FlightAware Approximate
05:07PM -28.8596 158.4243 48° Northeast  Level FlightAware Approximate
05:08PM -28.7798 158.5235 48° Northeast  Level FlightAware Approximate
05:09PM -28.7000 158.6227 47° Northeast  Level FlightAware Approximate
05:09PM -29.4307 157.7061 48° Northeast 34,000  Level Aus ATC (Calculated)
05:10PM -28.6201 158.7217 47° Northeast  Level FlightAware Approximate
05:11PM -29.5411 157.5589 227° Southwest  Level Estimated
05:12PM -29.6203 157.4583 228° Southwest  Level FlightAware Approximate
05:13PM -29.6994 157.3576 228° Southwest  Level FlightAware Approximate
05:14PM -29.7785 157.2567 228° Southwest  Level FlightAware Approximate
05:14PM -29.1018 158.1234 228° Southwest 480 552 34,200  Level Aus ATC (RADAR)
05:15PM -29.1517 158.0611 227° Southwest 461 531 34,200  Level Aus ATC (RADAR)
05:15PM -29.2241 157.9724 227° Southwest 456 525 34,200  Level Aus ATC (RADAR)
05:16PM -29.2525 157.9368 228° Southwest 456 525 34,200  Level Aus ATC (RADAR)
05:16PM -29.3075 157.8665 228° Southwest 450 518 34,200  Level Aus ATC (RADAR)
05:17PM -29.3571 157.8045 227° Southwest 450 518 34,200  Level Aus ATC (RADAR)
05:18PM -29.4200 157.7254 228° Southwest 446 513 34,200  Level Aus ATC (RADAR)
05:18PM -29.4671 157.6833 218° Southwest 424 488 34,200  Level Aus ATC (RADAR)
05:19PM -29.5247 157.6402 213° Southwest 417 480 34,200  Level Aus ATC (RADAR)
05:20PM -29.5929 157.5883 213° Southwest 428 493 34,200  Level Aus ATC (RADAR)
05:21PM -29.7842 157.4429 213° Southwest 448 516 34,200  Level Aus ATC (RADAR)
05:22PM -29.8269 157.4103 214° Southwest 446 513 34,200  Level Aus ATC (RADAR)
05:22PM -29.8701 157.3772 214° Southwest 447 514 34,200 -120 Level Aus ATC (RADAR)
05:23PM -29.9291 157.3316 214° Southwest 443 510 34,100  Descending Aus ATC (RADAR)
05:24PM -30.0066 157.2724 214° Southwest 444 511 34,200 60 Climbing Aus ATC (RADAR)
05:24PM -30.0647 157.2274 214° Southwest 439 505 34,200 -120 Level Aus ATC (RADAR)
05:25PM -30.1242 157.1814 214° Southwest 440 506 34,100  Descending Aus ATC (RADAR)
05:26PM -30.2454 157.0879 214° Southwest 447 514 34,200 60 Climbing Aus ATC (RADAR)
05:26PM -30.2715 157.0676 214° Southwest 448 516 34,200  Level Aus ATC (RADAR)
05:27PM -30.3485 157.0080 214° Southwest 447 514 34,200 -120 Level Aus ATC (RADAR)
05:28PM -30.4169 156.9551 214° Southwest 445 512 34,100  Descending Aus ATC (RADAR)
05:28PM -30.4592 156.9221 214° Southwest 443 510 34,200  Climbing Aus ATC (RADAR)
05:29PM -30.5195 156.8752 214° Southwest 447 514 34,100  Descending Aus ATC (RADAR)
05:29PM -30.5797 156.8284 214° Southwest 448 516 34,200 60 Climbing Aus ATC (RADAR)
05:30PM -30.6572 156.7678 214° Southwest 449 517 34,200  Level Aus ATC (RADAR)
05:31PM -30.7602 156.6871 214° Southwest 448 516 34,200  Level Aus ATC (RADAR)
05:31PM -30.7857 156.6672 214° Southwest 447 514 34,200  Level Aus ATC (RADAR)
05:32PM -30.8372 156.6268 214° Southwest 447 514 34,200 -120 Level Aus ATC (RADAR)
05:32PM -30.8924 156.5714 221° Southwest 449 517 34,100  Descending Aus ATC (RADAR)
05:33PM -30.9430 156.5097 226° Southwest 453 521 34,200 60 Climbing Aus ATC (RADAR)
05:33PM -30.9928 156.4487 226° Southwest 447 514 34,200  Level Aus ATC (RADAR)
05:34PM -31.0450 156.3875 225° Southwest 451 519 34,200  Level Aus ATC (RADAR)
05:35PM -31.0964 156.3262 226° Southwest 453 521 34,200  Level Aus ATC (RADAR)
05:35PM -31.1547 156.2564 226° Southwest 451 519 34,200 -180 Level Aus ATC (RADAR)
05:36PM -31.2277 156.1687 226° Southwest 452 520 34,000 -180 Descending Aus ATC (RADAR)
05:37PM -31.3007 156.0807 226° Southwest 453 521 34,000  Level Aus ATC (RADAR)
05:37PM -31.3519 156.0190 226° Southwest 452 520 34,000  Level Aus ATC (RADAR)
05:38PM -31.4175 155.9397 226° Southwest 453 521 34,000  Level Aus ATC (RADAR)
05:39PM -31.4540 155.8961 226° Southwest 451 519 34,000  Level Aus ATC (RADAR)
05:39PM -31.5048 155.8345 226° Southwest 451 519 34,000  Level Aus ATC (RADAR)
05:40PM -31.5771 155.7466 226° Southwest 450 518 34,000  Level Aus ATC (RADAR)
05:41PM -31.6706 155.6322 226° Southwest 449 517 34,000  Level Aus ATC (RADAR)
05:42PM -31.7062 155.5878 227° Southwest 448 516 34,000  Level Aus ATC (RADAR)
05:42PM -31.7379 155.5399 232° Southwest 448 516 34,000  Level Aus ATC (RADAR)
05:43PM -31.7838 155.4736 231° Southwest 448 516 34,000  Level Aus ATC (RADAR)
05:43PM -31.8425 155.3884 231° Southwest 448 516 34,000  Level Aus ATC (RADAR)
05:44PM -31.8883 155.3222 231° Southwest 447 514 34,000  Level Aus ATC (RADAR)
05:44PM -31.9337 155.2561 231° Southwest 446 513 34,000  Level Aus ATC (RADAR)
05:45PM -31.9794 155.1900 231° Southwest 445 512 34,000  Level Aus ATC (RADAR)
05:46PM -32.0700 155.0573 231° Southwest 446 513 34,000  Level Aus ATC (RADAR)
05:47PM -32.1021 155.0103 231° Southwest 443 510 34,000  Level Aus ATC (RADAR)
05:47PM -32.1240 154.9780 231° Southwest 444 511 34,000  Level FlightAware
05:47PM -32.1345 154.9631 231° Southwest 445 512 34,000  Level Aus ATC (RADAR)
05:48PM -32.1794 154.8973 231° Southwest 442 509 34,000  Level Aus ATC (RADAR)
05:48PM -32.1830 154.8910 231° Southwest 443 510 34,000  Level FlightAware
05:48PM -32.2080 154.8550 231° Southwest 441 507 34,000  Level FlightAware
05:48PM -32.2369 154.8130 231° Southwest 441 507 34,000  Level Aus ATC (RADAR)
05:49PM -32.2817 154.7471 231° Southwest 442 509 34,000  Level Aus ATC (RADAR)
05:49PM -32.2800 154.7490 231° Southwest 442 509 34,000  Level FlightAware
05:50PM -32.3388 154.6624 231° Southwest 440 506 34,000  Level Aus ATC (RADAR)
05:50PM -32.3400 154.6600 231° Southwest 442 509 34,000  Level FlightAware
05:50PM -32.3708 154.6152 231° Southwest 441 507 34,000  Level Aus ATC (RADAR)
05:50PM -32.3970 154.5760 231° Southwest 444 511 34,000  Level FlightAware
05:51PM -32.4348 154.5206 231° Southwest 442 509 34,000  Level Aus ATC (RADAR)
05:51PM -32.4480 154.5020 231° Southwest 444 511 34,000  Level FlightAware
05:51PM -32.4733 154.4635 231° Southwest 444 511 34,000  Level Aus ATC (RADAR)
05:52PM -32.5180 154.3968 231° Southwest 444 511 34,000  Level Aus ATC (RADAR)
05:52PM -32.5180 154.3960 231° Southwest 445 512 34,000  Level FlightAware
05:52PM -32.5420 154.3610 231° Southwest 445 512 34,000  Level FlightAware
05:53PM -32.5630 154.3303 231° Southwest 443 510 34,000  Level Aus ATC (RADAR)
05:53PM -32.6140 154.2540 231° Southwest 443 510 34,000  Level Aus ATC (RADAR)
05:53PM -32.6240 154.2380 231° Southwest 445 512 34,000  Level FlightAware
05:54PM -32.6710 154.1680 231° Southwest 445 512 34,000  Level FlightAware
05:55PM -32.7162 154.1009 231° Southwest 445 512 34,000  Level Aus ATC (RADAR)
05:55PM -32.7410 154.0630 232° Southwest 445 512 34,000  Level FlightAware
05:55PM -32.7480 154.0533 232° Southwest 442 509 34,000  Level Aus ATC (RADAR)
05:56PM -32.7925 153.9860 232° Southwest 444 511 34,000  Level Aus ATC (RADAR)
05:56PM -32.7930 153.9840 232° Southwest 445 512 34,000  Level FlightAware
05:56PM -32.8220 153.9410 231° Southwest 446 513 34,000 -120 Level FlightAware
05:57PM -32.8818 153.8515 231° Southwest 446 513 33,900  Descending Aus ATC (RADAR)
05:57PM -32.8920 153.8360 232° Southwest 448 516 34,000  Climbing FlightAware
05:57PM -32.9135 153.8036 232° Southwest 448 516 33,900 -180 Descending Aus ATC (RADAR)
05:58PM -32.9572 153.7373 232° Southwest 435 501 33,900 120 Level Aus ATC (RADAR)
05:58PM -32.9600 153.7330 232° Southwest 448 516 34,000 180 Climbing FlightAware
05:58PM -32.9920 153.6840 232° Southwest 448 516 34,000 -180 Level FlightAware
05:58PM -33.0146 153.6503 232° Southwest 436 502 33,900 -120 Descending Aus ATC (RADAR)
05:59PM -33.0595 153.5826 232° Southwest 435 501 33,900 60 Level Aus ATC (RADAR)
05:59PM -33.0770 153.5550 232° Southwest 446 513 34,000 60 Climbing FlightAware
06:00PM -33.1360 153.4650 232° Southwest 446 513 34,000 -120 Level FlightAware
06:00PM -33.1483 153.4471 232° Southwest 435 501 33,900  Descending Aus ATC (RADAR)
06:01PM -33.1680 153.4160 232° Southwest 446 513 34,000  Climbing FlightAware
06:01PM -33.1937 153.3777 232° Southwest 446 513 33,900  Descending Aus ATC (RADAR)
06:01PM -33.2400 153.3070 232° Southwest 446 513 34,000  Climbing FlightAware
06:02PM -33.2696 153.2615 232° Southwest 444 511 33,900  Descending Aus ATC (RADAR)
06:02PM -33.2940 153.2240 232° Southwest 445 512 34,000  Climbing FlightAware
06:02PM -33.3001 153.2146 232° Southwest 432 497 33,900  Descending Aus ATC (RADAR)
06:02PM -33.3160 153.1890 232° Southwest 445 512 34,000  Climbing FlightAware
06:03PM -33.3451 153.1454 232° Southwest 443 510 33,900 -300 Descending Aus ATC (RADAR)
06:04PM -33.3997 153.0613 232° Southwest 422 486 33,700 -300 Descending Aus ATC (RADAR)
06:04PM -33.3990 153.0620 232° Southwest 419 482 33,700 -720 Level FlightAware
06:04PM -33.4250 153.0210 232° Southwest 404 465 33,400 -1,500 Descending FlightAware
06:04PM -33.4407 152.9975 232° Southwest 411 473 32,900 -2,100 Descending Aus ATC (RADAR)
06:05PM -33.4796 152.9374 232° Southwest 396 456 31,900 -1,500 Descending Aus ATC (RADAR)
06:05PM -33.4830 152.9320 232° Southwest 395 455 31,900 -1,440 Level FlightAware
06:05PM -33.5220 152.8710 233° Southwest 417 480 30,900 -1,500 Descending FlightAware
06:06PM -33.5840 152.7750 232° Southwest 432 497 29,800 -1,620 Descending FlightAware
06:07PM -33.6450 152.6800 232° Southwest 425 489 28,200 -2,220 Descending FlightAware
06:07PM -33.6528 152.6683 232° Southwest 428 493 27,900 -2,580 Descending Aus ATC (RADAR)
06:08PM -33.6878 152.6132 232° Southwest 419 482 26,800 -1,860 Descending Aus ATC (RADAR)
06:08PM -33.6930 152.6050 232° Southwest 415 478 26,700 -2,160 Descending FlightAware
06:08PM -33.7400 152.5321 232° Southwest 410 472 25,200 -2,160 Descending Aus ATC (RADAR)
06:08PM -33.7420 152.5280 232° Southwest 405 466 25,200 -1,860 Level FlightAware
06:09PM -33.7880 152.4570 232° Southwest 396 456 23,800 -2,280 Descending FlightAware
06:10PM -33.8180 152.4093 232° Southwest 397 457 22,800 -2,100 Descending Aus ATC (RADAR)
06:10PM -33.8500 152.3580 232° Southwest 382 440 21,800 -2,100 Descending FlightAware
06:10PM -33.8611 152.3416 232° Southwest 386 444 21,400 -2,160 Descending Aus ATC (RADAR)
06:11PM -33.9025 152.2763 232° Southwest 373 429 20,200 -600 Descending Aus ATC (RADAR)
06:11PM -33.9000 152.2810 232° Southwest 378 435 21,000 -1,800 Climbing FlightAware
06:12PM -33.9500 152.2010 232° Southwest 362 417 18,700 -2,820 Descending FlightAware
06:12PM -33.9746 152.1635 232° Southwest 361 415 17,900 -1,980 Descending Aus ATC (RADAR)
06:12PM -33.9986 152.1246 232° Southwest 350 403 17,200 -1,380 Descending Aus ATC (RADAR)
06:13PM -34.0217 152.0864 232° Southwest 349 402 16,800 -1,020 Descending FlightAware ADS-B
06:13PM -34.0292 152.0636 248° West 345 397 16,600 -1,080 Descending FlightAware ADS-B
06:13PM -34.0312 152.0334 266° West 342 394 16,300 -1,440 Descending FlightAware ADS-B
06:14PM -34.0248 151.9692 277° West 334 384 15,400 -1,680 Descending FlightAware ADS-B
06:14PM -34.0191 151.9114 277° West 332 382 14,500 -1,920 Descending FlightAware ADS-B
06:15PM -34.0127 151.8498 277° West 344 396 13,400 -1,920 Descending FlightAware ADS-B
06:15PM -34.0066 151.7900 277° West 344 396 12,500 -1,920 Descending FlightAware ADS-B
06:16PM -34.0009 151.7338 277° West 337 388 11,500 -1,920 Descending FlightAware ADS-B
06:17PM -33.9938 151.6615 277° West 332 382 10,300 -1,860 Descending FlightAware ADS-B
06:17PM -33.9889 151.6130 277° West 325 374 9,500 -1,860 Descending FlightAware ADS-B
06:17PM -33.9854 151.5789 277° West 320 368 8,900 -1,380 Descending FlightAware ADS-B
06:18PM -33.9834 151.5609 277° West 318 366 8,700 -720 Descending FlightAware ADS-B (YSSY / SYD)
06:18PM -33.9789 151.5200 277° West 317 365 8,500 -960 Descending FlightAware ADS-B
06:18PM -33.9760 151.4929 278° West 315 362 8,200 -1,020 Descending FlightAware ADS-B (YSSY / SYD)
06:19PM -33.9733 151.4681 277° West 312 359 7,900 -900 Descending FlightAware ADS-B (YSSY / SYD)
06:19PM -33.9687 151.4238 277° West 303 349 7,600 -840 Descending FlightAware ADS-B (YSSY / SYD)
06:19PM -33.9685 151.4210 275° West 298 343 7,500 -1,020 Descending FlightAware ADS-B (YSSY / SYD)
06:19PM -33.9720 151.3938 261° West 294 338 7,300 -840 Descending FlightAware ADS-B (YSSY / SYD)
06:19PM -33.9755 151.3861 242° Southwest 292 336 7,300 -540 Level FlightAware ADS-B
06:19PM -33.9806 151.3782 232° Southwest 290 334 7,200 -1,140 Descending FlightAware ADS-B (YSSY / SYD)
06:19PM -33.9855 151.3729 222° Southwest 290 334 7,100 -600 Descending FlightAware ADS-B
06:20PM -33.9918 151.3680 213° Southwest 289 333 7,100 -1,140 Level FlightAware ADS-B (YSSY / SYD)
06:20PM -34.0041 151.3620 202° Southwest 288 331 6,800 -1,380 Descending FlightAware ADS-B (YSSY / SYD)
06:20PM -34.0272 151.3524 199° South 286 329 6,400 -1,440 Descending FlightAware ADS-B (YSSY / SYD)
06:20PM -34.0432 151.3486 191° South 286 329 6,100 -1,740 Descending FlightAware ADS-B (YSSY / SYD)
06:20PM -34.0495 151.3486 180° South 286 329 6,000 -900 Descending FlightAware ADS-B
06:20PM -34.0582 151.3500 173° South 284 327 5,900 -600 Descending FlightAware ADS-B
06:21PM -34.0881 151.3578 168° South 273 314 5,700 -600 Descending FlightAware ADS-B (YSSY / SYD)
06:21PM -34.1118 151.3639 168° South 264 304 5,500 -600 Descending FlightAware ADS-B (YSSY / SYD)
06:21PM -34.1355 151.3701 168° South 258 297 5,300 -600 Descending FlightAware ADS-B (YSSY / SYD)
06:22PM -34.1507 151.3729 171° South 252 290 5,200 -300 Descending FlightAware ADS-B
06:22PM -34.1517 151.3729 182° South 245 282 5,200 -300 Level FlightAware ADS-B (YSSY / SYD)
06:22PM -34.1699 151.3646 201° Southwest 233 268 5,100 -1,080 Descending FlightAware ADS-B
06:22PM -34.1745 151.3587 227° Southwest 254 292 4,900 -1,140 Descending FlightAware ADS-B
06:22PM -34.1773 151.3530 239° Southwest 224 258 4,900 -600 Level FlightAware ADS-B
06:22PM -34.1790 151.3466 252° West 220 253 4,800 -1,020 Descending FlightAware ADS-B
06:23PM -34.1781 151.3312 274° West 215 247 4,600 -900 Descending FlightAware ADS-B (YSSY / SYD)
06:23PM -34.1753 151.3244 297° West 212 244 4,500 -600 Descending FlightAware ADS-B
06:23PM -34.1733 151.3215 309° West 213 245 4,500 -1,380 Level FlightAware ADS-B (YSSY / SYD)
06:23PM -34.1689 151.3160 315° West 214 246 4,300 -900 Descending FlightAware ADS-B
06:23PM -34.1582 151.3042 317° Northwest 212 244 4,200 -780 Descending FlightAware ADS-B (YSSY / SYD)
06:23PM -34.1460 151.2909 318° Northwest 211 243 3,900 -1,080 Descending FlightAware ADS-B
06:24PM -34.1225 151.2658 318° Northwest 201 231 3,300 -1,020 Descending FlightAware ADS-B
06:24PM -34.1099 151.2525 319° Northwest 191 220 3,000 -1,200 Descending FlightAware ADS-B
06:25PM -34.0950 151.2368 319° Northwest 191 220 2,500 -1,080 Descending FlightAware ADS-B
06:25PM -34.0732 151.2207 329° Northwest 179 206 2,100 -900 Descending FlightAware ADS-B
06:25PM -34.0681 151.2191 345° North 185 213 2,000 -2,040 Descending FlightAware ADS-B
06:25PM -34.0633 151.2177 347° North 170 196 1,800 -900 Descending FlightAware ADS-B
06:26PM -34.0487 151.2141 348° North 157 181 1,600 -720 Descending FlightAware ADS-B
06:26PM -34.0328 151.2100 348° North 152 175 1,300 -840 Descending FlightAware ADS-B
06:26PM -34.0180 151.2060 347° North 150 173 1,000 -840 Descending FlightAware ADS-B (YSSY / SYD)
06:27PM -34.0103 151.2040 348° North 150 173 800 -720 Descending FlightAware ADS-B
06:27PM -33.9939 151.1998 348° North 150 173 600 -780 Descending FlightAware ADS-B
06:27PM -33.9700 151.1940 348° North 152 175 100 -900 Descending FlightAware
06:28PM -33.9610 151.1910 345° North 125 144 -420 Descending FlightAware
06:28PM -33.9592 151.1908 348° North 144 166  Level Aus ATC (RADAR)